sensor_id;sensor_type;location;lat;lon;timestamp;P1;durP1;ratioP1;P2;durP2;ratioP2
83306;SDS011;73223;48.584;13.460;2023-12-14T00:01:24;21.15;;;7.00;;
83306;SDS011;73223;48.584;13.460;2023-12-14T00:03:49;13.45;;;6.70;;
83306;SDS011;73223;48.584;13.460;2023-12-14T00:06:14;14.53;;;6.63;;
83306;SDS011;73223;48.584;13.460;2023-12-14T00:08:40;15.88;;;7.95;;
83306;SDS011;73223;48.584;13.460;2023-12-14T00:11:09;16.30;;;7.68;;
83306;SDS011;73223;48.584;13.460;2023-12-14T00:13:36;15.35;;;7.15;;
83306;SDS011;73223;48.584;13.460;2023-12-14T00:16:01;18.75;;;7.95;;
83306;SDS011;73223;48.584;13.460;2023-12-14T00:18:27;16.55;;;8.00;;
83306;SDS011;73223;48.584;13.460;2023-12-14T00:20:53;11.88;;;6.88;;
83306;SDS011;73223;48.584;13.460;2023-12-14T00:23:19;14.50;;;7.03;;
83306;SDS011;73223;48.584;13.460;2023-12-14T00:25:44;16.60;;;7.50;;
83306;SDS011;73223;48.584;13.460;2023-12-14T00:28:10;25.70;;;7.67;;
83306;SDS011;73223;48.584;13.460;2023-12-14T00:30:35;15.90;;;6.57;;
83306;SDS011;73223;48.584;13.460;2023-12-14T00:33:00;15.13;;;8.00;;
83306;SDS011;73223;48.584;13.460;2023-12-14T00:35:25;14.63;;;6.80;;
83306;SDS011;73223;48.584;13.460;2023-12-14T00:37:51;14.93;;;7.22;;
83306;SDS011;73223;48.584;13.460;2023-12-14T00:40:16;24.48;;;7.82;;
83306;SDS011;73223;48.584;13.460;2023-12-14T00:42:41;15.55;;;7.30;;
83306;SDS011;73223;48.584;13.460;2023-12-14T00:45:07;14.53;;;7.33;;
83306;SDS011;73223;48.584;13.460;2023-12-14T00:47:32;14.30;;;7.07;;
83306;SDS011;73223;48.584;13.460;2023-12-14T00:49:58;13.80;;;6.30;;
83306;SDS011;73223;48.584;13.460;2023-12-14T00:52:23;15.90;;;7.97;;
83306;SDS011;73223;48.584;13.460;2023-12-14T00:54:48;18.90;;;8.37;;
83306;SDS011;73223;48.584;13.460;2023-12-14T00:57:13;16.33;;;7.28;;
83306;SDS011;73223;48.584;13.460;2023-12-14T00:59:39;16.60;;;7.20;;
83306;SDS011;73223;48.584;13.460;2023-12-14T01:02:05;14.63;;;7.57;;
83306;SDS011;73223;48.584;13.460;2023-12-14T01:04:30;18.27;;;7.70;;
83306;SDS011;73223;48.584;13.460;2023-12-14T01:06:56;16.13;;;7.60;;
83306;SDS011;73223;48.584;13.460;2023-12-14T01:09:21;15.98;;;7.43;;
83306;SDS011;73223;48.584;13.460;2023-12-14T01:11:46;14.73;;;7.03;;
83306;SDS011;73223;48.584;13.460;2023-12-14T01:14:11;14.87;;;7.07;;
83306;SDS011;73223;48.584;13.460;2023-12-14T01:16:37;15.65;;;7.38;;
83306;SDS011;73223;48.584;13.460;2023-12-14T01:19:03;15.23;;;6.82;;
83306;SDS011;73223;48.584;13.460;2023-12-14T01:21:30;17.30;;;8.20;;
83306;SDS011;73223;48.584;13.460;2023-12-14T01:23:56;15.38;;;7.13;;
83306;SDS011;73223;48.584;13.460;2023-12-14T01:26:21;13.77;;;7.28;;
83306;SDS011;73223;48.584;13.460;2023-12-14T01:28:46;13.73;;;6.83;;
83306;SDS011;73223;48.584;13.460;2023-12-14T01:31:12;12.52;;;6.55;;
83306;SDS011;73223;48.584;13.460;2023-12-14T01:33:37;17.90;;;7.53;;
83306;SDS011;73223;48.584;13.460;2023-12-14T01:36:02;16.00;;;7.37;;
83306;SDS011;73223;48.584;13.460;2023-12-14T01:38:28;14.77;;;5.88;;
83306;SDS011;73223;48.584;13.460;2023-12-14T01:40:53;12.17;;;5.97;;
83306;SDS011;73223;48.584;13.460;2023-12-14T01:43:20;16.67;;;6.95;;
83306;SDS011;73223;48.584;13.460;2023-12-14T01:45:46;16.92;;;7.45;;
83306;SDS011;73223;48.584;13.460;2023-12-14T01:48:12;16.30;;;7.63;;
83306;SDS011;73223;48.584;13.460;2023-12-14T01:50:37;14.13;;;7.18;;
83306;SDS011;73223;48.584;13.460;2023-12-14T01:53:02;14.43;;;6.72;;
83306;SDS011;73223;48.584;13.460;2023-12-14T01:55:28;13.23;;;6.35;;
83306;SDS011;73223;48.584;13.460;2023-12-14T01:57:53;13.30;;;6.83;;
83306;SDS011;73223;48.584;13.460;2023-12-14T02:00:30;18.45;;;7.13;;
83306;SDS011;73223;48.584;13.460;2023-12-14T02:03:04;14.18;;;6.35;;
83306;SDS011;73223;48.584;13.460;2023-12-14T02:05:29;13.30;;;6.55;;
83306;SDS011;73223;48.584;13.460;2023-12-14T02:07:54;14.03;;;6.50;;
83306;SDS011;73223;48.584;13.460;2023-12-14T02:10:20;13.20;;;6.17;;
83306;SDS011;73223;48.584;13.460;2023-12-14T02:12:45;14.00;;;6.50;;
83306;SDS011;73223;48.584;13.460;2023-12-14T02:15:11;14.73;;;7.10;;
83306;SDS011;73223;48.584;13.460;2023-12-14T02:17:36;12.77;;;6.15;;
83306;SDS011;73223;48.584;13.460;2023-12-14T02:20:01;13.03;;;5.87;;
83306;SDS011;73223;48.584;13.460;2023-12-14T02:22:27;12.75;;;5.78;;
83306;SDS011;73223;48.584;13.460;2023-12-14T02:24:52;10.73;;;5.07;;
83306;SDS011;73223;48.584;13.460;2023-12-14T02:27:17;10.40;;;4.87;;
83306;SDS011;73223;48.584;13.460;2023-12-14T02:29:42;12.40;;;6.00;;
83306;SDS011;73223;48.584;13.460;2023-12-14T02:32:08;12.87;;;5.73;;
83306;SDS011;73223;48.584;13.460;2023-12-14T02:34:33;11.20;;;5.47;;
83306;SDS011;73223;48.584;13.460;2023-12-14T02:36:58;10.90;;;5.43;;
83306;SDS011;73223;48.584;13.460;2023-12-14T02:39:23;13.43;;;6.13;;
83306;SDS011;73223;48.584;13.460;2023-12-14T02:41:49;13.17;;;5.87;;
83306;SDS011;73223;48.584;13.460;2023-12-14T02:44:14;12.00;;;5.72;;
83306;SDS011;73223;48.584;13.460;2023-12-14T02:46:39;11.53;;;5.40;;
83306;SDS011;73223;48.584;13.460;2023-12-14T02:49:04;12.97;;;5.80;;
83306;SDS011;73223;48.584;13.460;2023-12-14T02:51:30;13.77;;;6.10;;
83306;SDS011;73223;48.584;13.460;2023-12-14T02:53:55;12.40;;;5.90;;
83306;SDS011;73223;48.584;13.460;2023-12-14T02:56:22;12.52;;;5.88;;
83306;SDS011;73223;48.584;13.460;2023-12-14T02:58:47;11.77;;;5.85;;
83306;SDS011;73223;48.584;13.460;2023-12-14T03:01:18;11.63;;;5.47;;
83306;SDS011;73223;48.584;13.460;2023-12-14T03:03:44;11.88;;;5.47;;
83306;SDS011;73223;48.584;13.460;2023-12-14T03:06:09;10.37;;;5.13;;
83306;SDS011;73223;48.584;13.460;2023-12-14T03:08:34;11.10;;;4.77;;
83306;SDS011;73223;48.584;13.460;2023-12-14T03:10:59;10.47;;;4.63;;
83306;SDS011;73223;48.584;13.460;2023-12-14T03:13:25;11.38;;;5.50;;
83306;SDS011;73223;48.584;13.460;2023-12-14T03:15:50;12.07;;;5.78;;
83306;SDS011;73223;48.584;13.460;2023-12-14T03:18:16;11.52;;;5.50;;
83306;SDS011;73223;48.584;13.460;2023-12-14T03:20:41;12.00;;;6.17;;
83306;SDS011;73223;48.584;13.460;2023-12-14T03:23:06;12.90;;;5.77;;
83306;SDS011;73223;48.584;13.460;2023-12-14T03:25:31;10.00;;;5.30;;
83306;SDS011;73223;48.584;13.460;2023-12-14T03:27:57;11.43;;;4.95;;
83306;SDS011;73223;48.584;13.460;2023-12-14T03:30:22;9.97;;;4.37;;
83306;SDS011;73223;48.584;13.460;2023-12-14T03:32:47;12.43;;;5.50;;
83306;SDS011;73223;48.584;13.460;2023-12-14T03:35:12;11.77;;;5.50;;
83306;SDS011;73223;48.584;13.460;2023-12-14T03:37:38;13.03;;;5.47;;
83306;SDS011;73223;48.584;13.460;2023-12-14T03:40:03;12.03;;;4.97;;
83306;SDS011;73223;48.584;13.460;2023-12-14T03:42:29;12.15;;;5.82;;
83306;SDS011;73223;48.584;13.460;2023-12-14T03:44:54;12.67;;;6.03;;
83306;SDS011;73223;48.584;13.460;2023-12-14T03:47:19;12.20;;;5.47;;
83306;SDS011;73223;48.584;13.460;2023-12-14T03:49:45;12.83;;;5.87;;
83306;SDS011;73223;48.584;13.460;2023-12-14T03:52:10;12.15;;;6.30;;
83306;SDS011;73223;48.584;13.460;2023-12-14T03:54:35;12.30;;;5.60;;
83306;SDS011;73223;48.584;13.460;2023-12-14T03:57:00;11.77;;;5.68;;
83306;SDS011;73223;48.584;13.460;2023-12-14T03:59:26;11.77;;;6.00;;
83306;SDS011;73223;48.584;13.460;2023-12-14T04:01:51;11.47;;;5.10;;
83306;SDS011;73223;48.584;13.460;2023-12-14T04:04:16;12.60;;;5.60;;
83306;SDS011;73223;48.584;13.460;2023-12-14T04:06:41;11.57;;;5.63;;
83306;SDS011;73223;48.584;13.460;2023-12-14T04:09:07;11.40;;;5.03;;
83306;SDS011;73223;48.584;13.460;2023-12-14T04:11:32;12.07;;;5.50;;
83306;SDS011;73223;48.584;13.460;2023-12-14T04:13:58;14.17;;;5.27;;
83306;SDS011;73223;48.584;13.460;2023-12-14T04:16:23;12.25;;;5.75;;
83306;SDS011;73223;48.584;13.460;2023-12-14T04:18:48;12.52;;;5.25;;
83306;SDS011;73223;48.584;13.460;2023-12-14T04:21:14;13.88;;;5.78;;
83306;SDS011;73223;48.584;13.460;2023-12-14T04:23:39;15.23;;;6.10;;
83306;SDS011;73223;48.584;13.460;2023-12-14T04:26:04;12.57;;;5.47;;
83306;SDS011;73223;48.584;13.460;2023-12-14T04:28:30;12.63;;;5.28;;
83306;SDS011;73223;48.584;13.460;2023-12-14T04:30:55;18.93;;;6.13;;
83306;SDS011;73223;48.584;13.460;2023-12-14T04:33:20;78.60;;;8.07;;
83306;SDS011;73223;48.584;13.460;2023-12-14T04:35:45;24.03;;;6.47;;
83306;SDS011;73223;48.584;13.460;2023-12-14T04:38:11;14.47;;;5.90;;
83306;SDS011;73223;48.584;13.460;2023-12-14T04:40:36;15.25;;;5.75;;
83306;SDS011;73223;48.584;13.460;2023-12-14T04:43:01;13.63;;;5.40;;
83306;SDS011;73223;48.584;13.460;2023-12-14T04:45:27;11.52;;;5.45;;
83306;SDS011;73223;48.584;13.460;2023-12-14T04:47:52;9.53;;;4.00;;
83306;SDS011;73223;48.584;13.460;2023-12-14T04:50:18;12.70;;;4.40;;
83306;SDS011;73223;48.584;13.460;2023-12-14T04:52:43;9.97;;;4.03;;
83306;SDS011;73223;48.584;13.460;2023-12-14T04:55:08;9.05;;;3.65;;
83306;SDS011;73223;48.584;13.460;2023-12-14T04:57:34;9.43;;;4.28;;
83306;SDS011;73223;48.584;13.460;2023-12-14T04:59:59;10.13;;;4.20;;
83306;SDS011;73223;48.584;13.460;2023-12-14T05:02:24;7.43;;;3.57;;
83306;SDS011;73223;48.584;13.460;2023-12-14T05:04:50;10.60;;;4.38;;
83306;SDS011;73223;48.584;13.460;2023-12-14T05:07:15;7.90;;;3.50;;
83306;SDS011;73223;48.584;13.460;2023-12-14T05:09:40;10.05;;;4.30;;
83306;SDS011;73223;48.584;13.460;2023-12-14T05:12:06;12.00;;;3.83;;
83306;SDS011;73223;48.584;13.460;2023-12-14T05:14:31;10.63;;;3.35;;
83306;SDS011;73223;48.584;13.460;2023-12-14T05:16:56;9.23;;;3.43;;
83306;SDS011;73223;48.584;13.460;2023-12-14T05:19:22;8.15;;;3.28;;
83306;SDS011;73223;48.584;13.460;2023-12-14T05:21:47;6.95;;;2.55;;
83306;SDS011;73223;48.584;13.460;2023-12-14T05:24:12;6.82;;;2.90;;
83306;SDS011;73223;48.584;13.460;2023-12-14T05:26:38;7.65;;;3.08;;
83306;SDS011;73223;48.584;13.460;2023-12-14T05:29:03;7.13;;;3.00;;
83306;SDS011;73223;48.584;13.460;2023-12-14T05:31:28;7.35;;;2.90;;
83306;SDS011;73223;48.584;13.460;2023-12-14T05:33:53;7.18;;;2.88;;
83306;SDS011;73223;48.584;13.460;2023-12-14T05:36:19;9.40;;;3.20;;
83306;SDS011;73223;48.584;13.460;2023-12-14T05:38:44;6.30;;;2.13;;
83306;SDS011;73223;48.584;13.460;2023-12-14T05:41:09;8.32;;;3.20;;
83306;SDS011;73223;48.584;13.460;2023-12-14T05:43:35;10.60;;;3.35;;
83306;SDS011;73223;48.584;13.460;2023-12-14T05:46:01;33.90;;;4.03;;
83306;SDS011;73223;48.584;13.460;2023-12-14T05:48:27;8.02;;;3.20;;
83306;SDS011;73223;48.584;13.460;2023-12-14T05:50:53;9.18;;;3.25;;
83306;SDS011;73223;48.584;13.460;2023-12-14T05:53:18;71.78;;;5.70;;
83306;SDS011;73223;48.584;13.460;2023-12-14T05:55:44;8.70;;;3.92;;
83306;SDS011;73223;48.584;13.460;2023-12-14T05:58:09;8.70;;;3.70;;
83306;SDS011;73223;48.584;13.460;2023-12-14T06:00:35;8.15;;;3.30;;
83306;SDS011;73223;48.584;13.460;2023-12-14T06:03:00;7.38;;;3.20;;
83306;SDS011;73223;48.584;13.460;2023-12-14T06:05:26;7.82;;;3.33;;
83306;SDS011;73223;48.584;13.460;2023-12-14T06:07:51;8.07;;;3.20;;
83306;SDS011;73223;48.584;13.460;2023-12-14T06:10:16;8.55;;;3.45;;
83306;SDS011;73223;48.584;13.460;2023-12-14T06:12:42;9.38;;;3.72;;
83306;SDS011;73223;48.584;13.460;2023-12-14T06:15:07;14.15;;;3.67;;
83306;SDS011;73223;48.584;13.460;2023-12-14T06:17:33;8.18;;;3.28;;
83306;SDS011;73223;48.584;13.460;2023-12-14T06:19:59;8.50;;;3.60;;
83306;SDS011;73223;48.584;13.460;2023-12-14T06:22:24;7.13;;;2.85;;
83306;SDS011;73223;48.584;13.460;2023-12-14T06:24:49;6.03;;;2.30;;
83306;SDS011;73223;48.584;13.460;2023-12-14T06:27:14;6.47;;;2.70;;
83306;SDS011;73223;48.584;13.460;2023-12-14T06:29:40;6.80;;;2.33;;
83306;SDS011;73223;48.584;13.460;2023-12-14T06:32:05;6.37;;;2.30;;
83306;SDS011;73223;48.584;13.460;2023-12-14T06:34:31;6.38;;;2.17;;
83306;SDS011;73223;48.584;13.460;2023-12-14T06:36:56;6.40;;;2.40;;
83306;SDS011;73223;48.584;13.460;2023-12-14T06:41:48;7.30;;;2.93;;
83306;SDS011;73223;48.584;13.460;2023-12-14T06:44:17;7.00;;;2.72;;
83306;SDS011;73223;48.584;13.460;2023-12-14T06:46:42;6.35;;;2.45;;
83306;SDS011;73223;48.584;13.460;2023-12-14T06:49:07;7.53;;;2.80;;
83306;SDS011;73223;48.584;13.460;2023-12-14T06:51:33;7.40;;;2.73;;
83306;SDS011;73223;48.584;13.460;2023-12-14T06:53:58;7.57;;;2.80;;
83306;SDS011;73223;48.584;13.460;2023-12-14T06:56:23;8.97;;;2.73;;
83306;SDS011;73223;48.584;13.460;2023-12-14T06:58:48;9.03;;;2.27;;
83306;SDS011;73223;48.584;13.460;2023-12-14T07:01:14;6.90;;;2.10;;
83306;SDS011;73223;48.584;13.460;2023-12-14T07:03:41;6.50;;;2.20;;
83306;SDS011;73223;48.584;13.460;2023-12-14T07:06:07;6.60;;;2.78;;
83306;SDS011;73223;48.584;13.460;2023-12-14T07:08:33;6.20;;;2.13;;
83306;SDS011;73223;48.584;13.460;2023-12-14T07:10:58;6.63;;;2.47;;
83306;SDS011;73223;48.584;13.460;2023-12-14T07:13:23;6.20;;;2.15;;
83306;SDS011;73223;48.584;13.460;2023-12-14T07:15:49;5.97;;;2.20;;
83306;SDS011;73223;48.584;13.460;2023-12-14T07:18:14;7.03;;;2.87;;
83306;SDS011;73223;48.584;13.460;2023-12-14T07:20:39;7.87;;;3.00;;
83306;SDS011;73223;48.584;13.460;2023-12-14T07:23:04;7.47;;;3.17;;
83306;SDS011;73223;48.584;13.460;2023-12-14T07:25:30;7.47;;;2.90;;
83306;SDS011;73223;48.584;13.460;2023-12-14T07:27:55;7.90;;;3.20;;
83306;SDS011;73223;48.584;13.460;2023-12-14T07:30:20;11.70;;;3.08;;
83306;SDS011;73223;48.584;13.460;2023-12-14T07:32:45;8.53;;;3.60;;
83306;SDS011;73223;48.584;13.460;2023-12-14T07:35:11;7.80;;;3.20;;
83306;SDS011;73223;48.584;13.460;2023-12-14T07:37:36;10.13;;;3.47;;
83306;SDS011;73223;48.584;13.460;2023-12-14T07:40:01;10.23;;;4.00;;
83306;SDS011;73223;48.584;13.460;2023-12-14T07:42:28;8.48;;;3.55;;
83306;SDS011;73223;48.584;13.460;2023-12-14T07:44:53;8.85;;;4.13;;
83306;SDS011;73223;48.584;13.460;2023-12-14T07:47:19;10.55;;;3.65;;
83306;SDS011;73223;48.584;13.460;2023-12-14T07:49:44;8.95;;;3.80;;
83306;SDS011;73223;48.584;13.460;2023-12-14T07:52:10;9.52;;;4.00;;
83306;SDS011;73223;48.584;13.460;2023-12-14T07:54:35;8.38;;;3.63;;
83306;SDS011;73223;48.584;13.460;2023-12-14T07:57:01;10.38;;;3.75;;
83306;SDS011;73223;48.584;13.460;2023-12-14T07:59:27;10.35;;;3.83;;
83306;SDS011;73223;48.584;13.460;2023-12-14T08:01:54;10.70;;;3.78;;
83306;SDS011;73223;48.584;13.460;2023-12-14T08:04:19;7.17;;;3.20;;
83306;SDS011;73223;48.584;13.460;2023-12-14T08:06:45;9.02;;;3.40;;
83306;SDS011;73223;48.584;13.460;2023-12-14T08:09:10;9.45;;;3.67;;
83306;SDS011;73223;48.584;13.460;2023-12-14T08:11:35;8.67;;;3.70;;
83306;SDS011;73223;48.584;13.460;2023-12-14T08:14:01;7.55;;;3.22;;
83306;SDS011;73223;48.584;13.460;2023-12-14T08:16:26;8.80;;;3.63;;
83306;SDS011;73223;48.584;13.460;2023-12-14T08:18:52;10.27;;;3.83;;
83306;SDS011;73223;48.584;13.460;2023-12-14T08:21:17;11.20;;;4.03;;
83306;SDS011;73223;48.584;13.460;2023-12-14T08:23:43;10.55;;;4.38;;
83306;SDS011;73223;48.584;13.460;2023-12-14T08:26:09;13.10;;;5.07;;
83306;SDS011;73223;48.584;13.460;2023-12-14T08:28:36;11.07;;;4.78;;
83306;SDS011;73223;48.584;13.460;2023-12-14T08:31:01;12.53;;;5.17;;
83306;SDS011;73223;48.584;13.460;2023-12-14T08:33:28;11.35;;;4.60;;
83306;SDS011;73223;48.584;13.460;2023-12-14T08:35:54;15.18;;;5.68;;
83306;SDS011;73223;48.584;13.460;2023-12-14T08:38:20;10.98;;;5.15;;
83306;SDS011;73223;48.584;13.460;2023-12-14T08:40:46;13.60;;;5.35;;
83306;SDS011;73223;48.584;13.460;2023-12-14T08:43:11;13.10;;;5.13;;
83306;SDS011;73223;48.584;13.460;2023-12-14T08:45:36;12.50;;;5.88;;
83306;SDS011;73223;48.584;13.460;2023-12-14T08:48:02;13.17;;;5.90;;
83306;SDS011;73223;48.584;13.460;2023-12-14T08:50:27;13.48;;;6.40;;
83306;SDS011;73223;48.584;13.460;2023-12-14T08:52:52;10.40;;;4.47;;
83306;SDS011;73223;48.584;13.460;2023-12-14T08:55:18;16.38;;;6.43;;
83306;SDS011;73223;48.584;13.460;2023-12-14T08:57:43;13.80;;;5.82;;
83306;SDS011;73223;48.584;13.460;2023-12-14T09:00:09;14.10;;;6.67;;
83306;SDS011;73223;48.584;13.460;2023-12-14T09:02:35;14.40;;;6.45;;
83306;SDS011;73223;48.584;13.460;2023-12-14T09:05:00;15.13;;;6.57;;
83306;SDS011;73223;48.584;13.460;2023-12-14T09:07:26;15.30;;;5.50;;
83306;SDS011;73223;48.584;13.460;2023-12-14T09:09:51;15.07;;;6.30;;
83306;SDS011;73223;48.584;13.460;2023-12-14T09:12:16;13.63;;;5.77;;
83306;SDS011;73223;48.584;13.460;2023-12-14T09:14:41;14.43;;;6.50;;
83306;SDS011;73223;48.584;13.460;2023-12-14T09:17:07;17.30;;;6.50;;
83306;SDS011;73223;48.584;13.460;2023-12-14T09:19:32;14.05;;;6.18;;
83306;SDS011;73223;48.584;13.460;2023-12-14T09:21:57;15.43;;;7.17;;
83306;SDS011;73223;48.584;13.460;2023-12-14T09:24:23;13.05;;;5.55;;
83306;SDS011;73223;48.584;13.460;2023-12-14T09:26:48;16.27;;;7.10;;
83306;SDS011;73223;48.584;13.460;2023-12-14T09:29:13;15.17;;;6.70;;
83306;SDS011;73223;48.584;13.460;2023-12-14T09:31:43;13.05;;;5.47;;
83306;SDS011;73223;48.584;13.460;2023-12-14T09:34:09;14.73;;;6.13;;
83306;SDS011;73223;48.584;13.460;2023-12-14T09:36:35;15.63;;;6.43;;
83306;SDS011;73223;48.584;13.460;2023-12-14T09:39:01;15.48;;;6.35;;
83306;SDS011;73223;48.584;13.460;2023-12-14T09:41:26;16.63;;;6.30;;
83306;SDS011;73223;48.584;13.460;2023-12-14T09:43:52;14.02;;;5.47;;
83306;SDS011;73223;48.584;13.460;2023-12-14T09:46:17;13.90;;;6.55;;
83306;SDS011;73223;48.584;13.460;2023-12-14T09:48:43;15.68;;;6.38;;
83306;SDS011;73223;48.584;13.460;2023-12-14T09:51:10;13.77;;;5.78;;
83306;SDS011;73223;48.584;13.460;2023-12-14T09:53:37;14.15;;;6.20;;
83306;SDS011;73223;48.584;13.460;2023-12-14T09:56:02;11.53;;;5.13;;
83306;SDS011;73223;48.584;13.460;2023-12-14T09:58:31;15.45;;;5.95;;
83306;SDS011;73223;48.584;13.460;2023-12-14T10:00:57;16.98;;;6.88;;
83306;SDS011;73223;48.584;13.460;2023-12-14T10:03:25;14.68;;;6.43;;
83306;SDS011;73223;48.584;13.460;2023-12-14T10:05:53;14.32;;;6.28;;
83306;SDS011;73223;48.584;13.460;2023-12-14T10:08:19;14.35;;;5.95;;
83306;SDS011;73223;48.584;13.460;2023-12-14T10:10:46;15.75;;;5.47;;
83306;SDS011;73223;48.584;13.460;2023-12-14T10:13:17;12.30;;;5.78;;
83306;SDS011;73223;48.584;13.460;2023-12-14T10:15:43;13.25;;;6.00;;
83306;SDS011;73223;48.584;13.460;2023-12-14T10:18:10;12.55;;;5.90;;
83306;SDS011;73223;48.584;13.460;2023-12-14T10:20:36;14.00;;;5.95;;
83306;SDS011;73223;48.584;13.460;2023-12-14T10:23:05;14.02;;;6.00;;
83306;SDS011;73223;48.584;13.460;2023-12-14T10:25:32;11.50;;;5.38;;
83306;SDS011;73223;48.584;13.460;2023-12-14T10:27:57;14.73;;;6.40;;
83306;SDS011;73223;48.584;13.460;2023-12-14T10:30:23;13.23;;;6.30;;
83306;SDS011;73223;48.584;13.460;2023-12-14T10:32:48;12.73;;;5.97;;
83306;SDS011;73223;48.584;13.460;2023-12-14T10:35:17;13.85;;;5.68;;
83306;SDS011;73223;48.584;13.460;2023-12-14T10:37:44;15.57;;;6.05;;
83306;SDS011;73223;48.584;13.460;2023-12-14T10:40:11;12.93;;;5.93;;
83306;SDS011;73223;48.584;13.460;2023-12-14T10:42:39;15.05;;;5.70;;
83306;SDS011;73223;48.584;13.460;2023-12-14T10:45:08;13.70;;;6.22;;
83306;SDS011;73223;48.584;13.460;2023-12-14T10:47:37;13.13;;;5.22;;
83306;SDS011;73223;48.584;13.460;2023-12-14T10:50:05;12.30;;;5.07;;
83306;SDS011;73223;48.584;13.460;2023-12-14T10:52:31;15.45;;;5.32;;
83306;SDS011;73223;48.584;13.460;2023-12-14T10:55:01;12.20;;;5.50;;
83306;SDS011;73223;48.584;13.460;2023-12-14T10:57:32;14.82;;;5.35;;
83306;SDS011;73223;48.584;13.460;2023-12-14T10:59:59;11.27;;;4.65;;
83306;SDS011;73223;48.584;13.460;2023-12-14T11:02:25;15.00;;;5.25;;
83306;SDS011;73223;48.584;13.460;2023-12-14T11:04:57;11.30;;;4.50;;
83306;SDS011;73223;48.584;13.460;2023-12-14T11:07:46;10.68;;;4.50;;
83306;SDS011;73223;48.584;13.460;2023-12-14T11:10:28;11.52;;;4.35;;
83306;SDS011;73223;48.584;13.460;2023-12-14T11:13:02;11.27;;;4.78;;
83306;SDS011;73223;48.584;13.460;2023-12-14T11:15:32;12.38;;;4.82;;
83306;SDS011;73223;48.584;13.460;2023-12-14T11:23:13;12.90;;;4.95;;
83306;SDS011;73223;48.584;13.460;2023-12-14T11:26:00;13.68;;;6.10;;
83306;SDS011;73223;48.584;13.460;2023-12-14T11:28:28;15.15;;;6.28;;
83306;SDS011;73223;48.584;13.460;2023-12-14T11:30:55;13.98;;;5.70;;
83306;SDS011;73223;48.584;13.460;2023-12-14T11:33:21;12.52;;;5.65;;
83306;SDS011;73223;48.584;13.460;2023-12-14T11:35:46;13.20;;;5.85;;
83306;SDS011;73223;48.584;13.460;2023-12-14T11:38:12;12.80;;;5.72;;
83306;SDS011;73223;48.584;13.460;2023-12-14T11:40:40;14.00;;;6.07;;
83306;SDS011;73223;48.584;13.460;2023-12-14T11:43:07;13.60;;;6.13;;
83306;SDS011;73223;48.584;13.460;2023-12-14T11:45:33;13.88;;;6.35;;
83306;SDS011;73223;48.584;13.460;2023-12-14T11:47:59;15.13;;;5.75;;
83306;SDS011;73223;48.584;13.460;2023-12-14T11:52:52;15.38;;;5.18;;
83306;SDS011;73223;48.584;13.460;2023-12-14T11:55:18;15.18;;;6.38;;
83306;SDS011;73223;48.584;13.460;2023-12-14T11:57:46;14.07;;;6.13;;
83306;SDS011;73223;48.584;13.460;2023-12-14T12:00:12;10.63;;;5.32;;
83306;SDS011;73223;48.584;13.460;2023-12-14T12:02:38;13.82;;;6.00;;
83306;SDS011;73223;48.584;13.460;2023-12-14T12:05:05;14.10;;;5.38;;
83306;SDS011;73223;48.584;13.460;2023-12-14T12:07:31;14.10;;;6.47;;
83306;SDS011;73223;48.584;13.460;2023-12-14T12:09:56;14.32;;;6.25;;
83306;SDS011;73223;48.584;13.460;2023-12-14T12:12:21;15.10;;;6.13;;
83306;SDS011;73223;48.584;13.460;2023-12-14T12:14:47;12.93;;;6.10;;
83306;SDS011;73223;48.584;13.460;2023-12-14T12:17:14;15.57;;;6.07;;
83306;SDS011;73223;48.584;13.460;2023-12-14T12:19:40;15.90;;;6.50;;
83306;SDS011;73223;48.584;13.460;2023-12-14T12:22:07;16.27;;;6.70;;
83306;SDS011;73223;48.584;13.460;2023-12-14T12:24:33;16.02;;;5.78;;
83306;SDS011;73223;48.584;13.460;2023-12-14T12:26:59;13.98;;;6.15;;
83306;SDS011;73223;48.584;13.460;2023-12-14T12:29:24;12.63;;;5.93;;
83306;SDS011;73223;48.584;13.460;2023-12-14T12:31:50;16.65;;;6.53;;
83306;SDS011;73223;48.584;13.460;2023-12-14T12:34:16;14.90;;;6.28;;
83306;SDS011;73223;48.584;13.460;2023-12-14T12:36:42;14.30;;;6.28;;
83306;SDS011;73223;48.584;13.460;2023-12-14T12:39:07;14.03;;;6.60;;
83306;SDS011;73223;48.584;13.460;2023-12-14T12:41:33;17.83;;;7.50;;
83306;SDS011;73223;48.584;13.460;2023-12-14T12:43:59;14.60;;;5.93;;
83306;SDS011;73223;48.584;13.460;2023-12-14T12:46:30;15.85;;;6.70;;
83306;SDS011;73223;48.584;13.460;2023-12-14T12:48:56;14.75;;;6.93;;
83306;SDS011;73223;48.584;13.460;2023-12-14T12:51:21;13.63;;;5.87;;
83306;SDS011;73223;48.584;13.460;2023-12-14T12:53:46;14.17;;;6.00;;
83306;SDS011;73223;48.584;13.460;2023-12-14T12:56:12;13.95;;;6.72;;
83306;SDS011;73223;48.584;13.460;2023-12-14T12:58:37;18.70;;;7.00;;
83306;SDS011;73223;48.584;13.460;2023-12-14T13:01:02;14.55;;;6.07;;
83306;SDS011;73223;48.584;13.460;2023-12-14T13:03:27;16.35;;;6.65;;
83306;SDS011;73223;48.584;13.460;2023-12-14T13:05:53;14.13;;;5.93;;
83306;SDS011;73223;48.584;13.460;2023-12-14T13:08:18;16.08;;;6.90;;
83306;SDS011;73223;48.584;13.460;2023-12-14T13:10:43;17.58;;;7.55;;
83306;SDS011;73223;48.584;13.460;2023-12-14T13:13:08;14.23;;;7.10;;
83306;SDS011;73223;48.584;13.460;2023-12-14T13:15:34;13.75;;;6.78;;
83306;SDS011;73223;48.584;13.460;2023-12-14T13:18:00;14.25;;;6.32;;
83306;SDS011;73223;48.584;13.460;2023-12-14T13:20:25;15.30;;;6.95;;
83306;SDS011;73223;48.584;13.460;2023-12-14T13:22:50;14.97;;;6.27;;
83306;SDS011;73223;48.584;13.460;2023-12-14T13:25:16;15.38;;;6.32;;
83306;SDS011;73223;48.584;13.460;2023-12-14T13:27:41;13.63;;;6.23;;
83306;SDS011;73223;48.584;13.460;2023-12-14T13:30:08;14.57;;;6.38;;
83306;SDS011;73223;48.584;13.460;2023-12-14T13:32:33;14.85;;;5.68;;
83306;SDS011;73223;48.584;13.460;2023-12-14T13:34:59;9.95;;;4.35;;
83306;SDS011;73223;48.584;13.460;2023-12-14T13:37:24;10.85;;;5.13;;
83306;SDS011;73223;48.584;13.460;2023-12-14T13:39:50;9.75;;;4.50;;
83306;SDS011;73223;48.584;13.460;2023-12-14T13:42:17;13.45;;;4.65;;
83306;SDS011;73223;48.584;13.460;2023-12-14T13:44:43;9.35;;;4.43;;
83306;SDS011;73223;48.584;13.460;2023-12-14T13:47:08;10.53;;;4.53;;
83306;SDS011;73223;48.584;13.460;2023-12-14T13:49:33;12.23;;;4.63;;
83306;SDS011;73223;48.584;13.460;2023-12-14T13:51:59;10.10;;;4.32;;
83306;SDS011;73223;48.584;13.460;2023-12-14T13:54:24;11.05;;;4.80;;
83306;SDS011;73223;48.584;13.460;2023-12-14T13:56:49;11.73;;;5.03;;
83306;SDS011;73223;48.584;13.460;2023-12-14T13:59:14;11.47;;;5.37;;
83306;SDS011;73223;48.584;13.460;2023-12-14T14:01:40;11.00;;;4.30;;
83306;SDS011;73223;48.584;13.460;2023-12-14T14:04:05;10.43;;;4.53;;
83306;SDS011;73223;48.584;13.460;2023-12-14T14:06:30;11.27;;;5.07;;
83306;SDS011;73223;48.584;13.460;2023-12-14T14:08:56;10.60;;;4.30;;
83306;SDS011;73223;48.584;13.460;2023-12-14T14:11:21;9.43;;;4.55;;
83306;SDS011;73223;48.584;13.460;2023-12-14T14:13:47;13.40;;;4.38;;
83306;SDS011;73223;48.584;13.460;2023-12-14T14:16:13;14.32;;;4.40;;
83306;SDS011;73223;48.584;13.460;2023-12-14T14:18:38;11.83;;;4.63;;
83306;SDS011;73223;48.584;13.460;2023-12-14T14:21:03;9.70;;;4.40;;
83306;SDS011;73223;48.584;13.460;2023-12-14T14:23:32;9.75;;;3.78;;
83306;SDS011;73223;48.584;13.460;2023-12-14T14:25:58;10.98;;;4.40;;